Time;durP1;ratioP1;P1;durP2;ratioP2;P2;SDS_P1;SDS_P2;PMS_P1;PMS_P2;Temp;Humidity;BMP_temperature;BMP_pressure;BME280_temperature;BME280_humidity;BME280_pressure;Samples;Min_cycle;Max_cycle;Signal;HPM_P1;HPM_P2
2023/03/29 00:01:15;;;;;;;6.55;3.03;;;5.30;99.90;;;;;;5112517;28;20177;-77
2023/03/29 00:03:42;;;;;;;5.47;2.65;;;5.30;99.90;;;;;;5112369;28;20055;-75
2023/03/29 00:06:09;;;;;;;6.22;2.60;;;5.30;99.90;;;;;;5112437;28;20046;-75
2023/03/29 00:08:36;;;;;;;8.13;2.70;;;5.20;99.90;;;;;;5112111;28;20051;-77
2023/03/29 00:11:02;;;;;;;8.02;2.53;;;5.20;99.90;;;;;;5111943;28;20087;-76
2023/03/29 00:13:28;;;;;;;4.93;2.47;;;5.20;99.90;;;;;;5112352;28;20035;-76
2023/03/29 00:15:55;;;;;;;5.40;2.58;;;5.20;99.90;;;;;;5112252;28;20051;-76
2023/03/29 00:18:21;;;;;;;4.43;2.60;;;5.20;99.90;;;;;;5111682;28;20043;-76
2023/03/29 00:20:57;;;;;;;8.13;2.20;;;5.50;99.90;;;;;;5111683;28;20043;-74
2023/03/29 00:23:24;;;;;;;6.68;2.63;;;5.20;99.90;;;;;;5091141;28;20075;-76
2023/03/29 00:25:52;;;;;;;5.10;2.67;;;5.20;99.90;;;;;;5091096;28;20040;-78
2023/03/29 00:28:17;;;;;;;5.85;2.72;;;5.20;99.90;;;;;;5102954;28;20051;-76
2023/03/29 00:30:43;;;;;;;5.78;2.75;;;5.20;99.90;;;;;;5112114;28;20032;-76
2023/03/29 00:33:10;;;;;;;7.68;2.35;;;5.20;99.90;;;;;;5111809;28;20050;-77
2023/03/29 00:35:38;;;;;;;7.75;2.72;;;5.20;99.90;;;;;;5111733;28;20043;-76
2023/03/29 00:38:05;;;;;;;6.50;2.88;;;5.20;99.90;;;;;;5111214;28;20393;-77
2023/03/29 00:40:31;;;;;;;4.72;2.25;;;5.20;99.90;;;;;;5111759;28;20050;-76
2023/03/29 00:42:59;;;;;;;5.47;2.35;;;5.20;99.90;;;;;;5093709;28;20405;-77
2023/03/29 00:45:34;;;;;;;6.05;2.72;;;5.20;99.90;;;;;;5111553;28;20131;-77
2023/03/29 00:48:03;;;;;;;5.63;2.50;;;5.20;99.90;;;;;;5111742;28;20043;-77
2023/03/29 00:51:00;;;;;;;6.80;2.60;;;5.20;99.90;;;;;;5110913;28;20088;-76
2023/03/29 00:53:35;;;;;;;7.60;2.95;;;5.10;99.90;;;;;;5111301;28;20051;-76
2023/03/29 00:56:04;;;;;;;;;;;5.20;99.90;;;;;;5111698;28;20386;-75
2023/03/29 00:58:48;;;;;;;5.80;2.40;;;5.50;99.90;;;;;;5111445;28;20389;-74
2023/03/29 01:01:19;;;;;;;7.20;2.42;;;5.10;99.90;;;;;;5111285;28;20390;-75
2023/03/29 01:03:52;;;;;;;4.65;2.38;;;5.20;99.90;;;;;;5111484;28;20040;-74
2023/03/29 01:06:21;;;;;;;5.97;2.95;;;5.60;99.90;;;;;;5111544;28;20112;-76
2023/03/29 01:08:51;;;;;;;4.30;2.38;;;5.20;99.90;;;;;;5111054;28;20052;-76
2023/03/29 01:11:21;;;;;;;5.28;2.22;;;5.20;99.90;;;;;;5110992;28;20062;-77
2023/03/29 01:14:11;;;;;;;5.82;2.65;;;5.20;99.90;;;;;;5093072;28;20616;-77
2023/03/29 01:16:39;;;;;;;6.38;2.58;;;5.20;99.90;;;;;;5111319;28;20044;-76
2023/03/29 01:19:09;;;;;;;6.22;2.58;;;5.10;99.90;;;;;;5072687;28;20118;-75
2023/03/29 01:21:48;;;;;;;4.95;2.20;;;5.10;99.90;;;;;;5090772;28;20058;-75
2023/03/29 01:24:41;;;;;;;4.40;2.30;;;5.10;99.90;;;;;;5096666;28;20525;-75
2023/03/29 01:27:22;;;;;;;5.55;2.38;;;5.10;99.90;;;;;;5110782;28;20052;-77
2023/03/29 01:29:53;;;;;;;4.82;2.20;;;5.20;99.90;;;;;;5110745;28;20083;-77
2023/03/29 01:32:22;;;;;;;6.00;2.50;;;5.10;99.90;;;;;;5110741;28;20052;-77
2023/03/29 01:34:56;;;;;;;5.85;2.20;;;5.10;99.90;;;;;;5110387;28;20054;-79
2023/03/29 01:37:44;;;;;;;3.92;2.00;;;5.10;99.90;;;;;;5092463;28;20054;-77
2023/03/29 01:40:10;;;;;;;7.93;2.50;;;5.10;99.90;;;;;;5110341;28;20043;-77
2023/03/29 01:42:50;;;;;;;6.65;2.50;;;5.10;99.90;;;;;;5110325;28;20090;-77
2023/03/29 01:45:23;;;;;;;6.72;2.53;;;5.10;99.90;;;;;;5110618;28;20091;-75
2023/03/29 01:48:07;;;;;;;5.20;2.30;;;5.10;99.90;;;;;;5110416;28;20054;-78
2023/03/29 01:50:53;;;;;;;6.85;3.00;;;5.10;99.90;;;;;;5109829;28;20048;-77
2023/03/29 01:53:30;;;;;;;6.20;2.45;;;5.10;99.90;;;;;;5110324;28;20047;-78
2023/03/29 01:56:03;;;;;;;5.65;2.67;;;5.10;99.90;;;;;;5110209;28;20089;-77
2023/03/29 01:58:34;;;;;;;9.60;2.78;;;5.10;99.90;;;;;;5110452;28;20135;-75
2023/03/29 02:01:04;;;;;;;6.88;3.08;;;5.10;99.90;;;;;;5103264;28;20044;-77
2023/03/29 02:03:32;;;;;;;6.22;3.03;;;5.10;99.90;;;;;;5105242;28;20047;-75
2023/03/29 02:05:59;;;;;;;8.52;3.10;;;5.30;99.90;;;;;;5110433;28;20078;-75
2023/03/29 02:08:26;;;;;;;7.43;3.20;;;5.10;99.90;;;;;;5092020;28;20056;-75
2023/03/29 02:10:53;;;;;;;8.07;3.90;;;5.10;99.90;;;;;;5106094;28;20047;-75
2023/03/29 02:13:19;;;;;;;7.43;3.17;;;5.10;99.90;;;;;;5103643;28;20051;-77
2023/03/29 02:15:46;;;;;;;10.10;3.25;;;5.10;99.90;;;;;;5091829;28;20489;-77
2023/03/29 02:18:16;;;;;;;7.63;3.70;;;5.10;99.90;;;;;;5109913;28;20078;-76
2023/03/29 02:20:46;;;;;;;7.47;3.50;;;5.10;99.90;;;;;;5110398;28;20189;-76
2023/03/29 02:23:20;;;;;;;7.65;3.70;;;5.10;99.90;;;;;;5109580;28;20039;-75
2023/03/29 02:25:49;;;;;;;6.55;3.63;;;5.10;99.90;;;;;;5109526;28;20058;-75
2023/03/29 02:28:15;;;;;;;7.18;3.30;;;5.10;99.90;;;;;;5109961;28;20063;-76
2023/03/29 02:30:56;;;;;;;5.53;3.60;;;5.20;99.90;;;;;;5109841;28;20039;-77
2023/03/29 02:33:44;;;;;;;10.05;3.53;;;5.10;99.90;;;;;;5091646;28;20086;-75
2023/03/29 02:36:37;;;;;;;8.23;3.42;;;5.20;99.90;;;;;;5109802;28;20039;-76
2023/03/29 02:39:04;;;;;;;6.13;3.40;;;5.10;99.90;;;;;;5110087;28;20551;-75
2023/03/29 02:41:31;;;;;;;8.63;4.03;;;5.10;99.90;;;;;;5108439;28;20126;-76
2023/03/29 02:44:00;;;;;;;6.57;3.63;;;5.10;99.90;;;;;;5089715;28;20036;-78
2023/03/29 02:46:26;;;;;;;10.30;3.90;;;5.20;99.90;;;;;;5089579;28;20036;-76
2023/03/29 02:48:54;;;;;;;10.32;3.67;;;5.10;99.90;;;;;;5108906;28;20044;-80
2023/03/29 02:51:30;;;;;;;11.02;3.92;;;5.20;99.90;;;;;;5091138;28;20403;-77
2023/03/29 02:54:12;;;;;;;8.23;3.95;;;5.20;99.90;;;;;;5106436;28;20093;-77
2023/03/29 02:56:43;;;;;;;9.68;3.97;;;5.70;99.90;;;;;;5107828;28;20047;-75
2023/03/29 02:59:11;;;;;;;6.30;3.83;;;5.20;99.90;;;;;;5110048;28;20043;-77
2023/03/29 03:01:37;;;;;;;8.52;4.13;;;5.20;99.90;;;;;;5111265;28;20147;-77
2023/03/29 03:04:03;;;;;;;8.75;4.10;;;5.20;99.90;;;;;;5113188;28;20151;-78
2023/03/29 03:06:29;;;;;;;8.52;4.10;;;5.20;99.90;;;;;;5093898;28;20123;-77
2023/03/29 03:08:54;;;;;;;6.68;3.65;;;5.20;99.90;;;;;;5093507;28;20474;-76
2023/03/29 03:11:20;;;;;;;8.95;3.88;;;5.50;99.90;;;;;;5097990;28;20459;-77
2023/03/29 03:13:46;;;;;;;9.73;4.80;;;5.20;99.90;;;;;;5093354;28;20036;-76
2023/03/29 03:16:12;;;;;;;9.27;4.10;;;5.20;99.90;;;;;;5104637;28;20035;-75
2023/03/29 03:18:37;;;;;;;5.63;3.70;;;5.20;99.90;;;;;;5094872;28;20494;-75
2023/03/29 03:21:03;;;;;;;8.88;4.32;;;5.20;99.90;;;;;;5113281;28;20035;-76
2023/03/29 03:23:29;;;;;;;9.27;4.00;;;5.20;99.90;;;;;;5100194;28;20051;-76
2023/03/29 03:25:55;;;;;;;8.57;4.10;;;5.20;99.90;;;;;;5093922;28;20059;-77
2023/03/29 03:28:23;;;;;;;6.63;3.50;;;5.20;99.90;;;;;;5093035;28;20048;-76
2023/03/29 03:30:48;;;;;;;6.45;3.60;;;5.20;99.90;;;;;;5092945;28;20414;-75
2023/03/29 03:33:14;;;;;;;11.43;4.72;;;5.20;99.90;;;;;;5092924;28;20048;-75
2023/03/29 03:35:41;;;;;;;10.25;4.18;;;5.20;99.90;;;;;;5074637;28;20059;-76
2023/03/29 03:38:07;;;;;;;6.90;3.78;;;5.60;99.90;;;;;;5111547;28;20402;-74
2023/03/29 03:40:33;;;;;;;8.90;3.65;;;5.20;99.90;;;;;;5112650;28;20044;-75
2023/03/29 03:42:59;;;;;;;8.48;3.53;;;5.20;99.90;;;;;;5092185;28;20062;-80
2023/03/29 03:45:25;;;;;;;6.97;3.72;;;5.20;99.90;;;;;;5112912;28;20096;-76
2023/03/29 03:47:50;;;;;;;11.02;4.03;;;5.20;99.90;;;;;;5111058;28;20045;-75
2023/03/29 03:50:17;;;;;;;8.90;4.15;;;5.20;99.90;;;;;;5094660;28;20463;-75
2023/03/29 03:52:43;;;;;;;9.65;4.30;;;5.20;99.90;;;;;;5094229;28;20039;-75
2023/03/29 03:55:08;;;;;;;6.22;3.67;;;5.30;99.90;;;;;;5112842;28;20047;-74
2023/03/29 03:57:37;;;;;;;12.95;4.25;;;5.30;99.90;;;;;;5108778;28;20040;-76
2023/03/29 04:00:19;;;;;;;8.63;4.40;;;5.70;99.90;;;;;;5112171;28;20563;-76
2023/03/29 04:02:46;;;;;;;8.75;4.60;;;5.30;99.90;;;;;;5112615;28;20043;-76
2023/03/29 04:05:12;;;;;;;11.90;4.32;;;5.30;99.90;;;;;;5112194;28;20036;-75
2023/03/29 04:07:39;;;;;;;12.10;3.97;;;5.30;99.90;;;;;;5111248;28;20052;-75
2023/03/29 04:10:07;;;;;;;10.07;4.60;;;5.30;99.90;;;;;;5091069;28;20047;-77
2023/03/29 04:12:33;;;;;;;8.55;4.50;;;5.30;99.90;;;;;;5107649;28;20100;-77
2023/03/29 04:14:59;;;;;;;10.40;4.30;;;5.30;99.90;;;;;;5102427;28;20963;-75
2023/03/29 04:17:24;;;;;;;11.98;4.22;;;5.30;99.90;;;;;;5091870;28;20062;-76
2023/03/29 04:19:50;;;;;;;5.70;3.67;;;5.30;99.90;;;;;;5092548;28;20079;-76
2023/03/29 04:22:16;;;;;;;9.27;4.80;;;5.70;99.90;;;;;;5094213;28;20056;-74
2023/03/29 04:24:41;;;;;;;6.28;3.88;;;5.30;99.90;;;;;;5091677;28;20047;-75
2023/03/29 04:27:08;;;;;;;8.05;4.32;;;4.80;99.90;;;;;;5091430;28;20510;-76
2023/03/29 04:29:33;;;;;;;8.50;4.45;;;5.40;99.90;;;;;;5092463;28;20046;-75
2023/03/29 04:31:59;;;;;;;8.25;4.45;;;5.40;99.90;;;;;;5092565;28;20114;-75
2023/03/29 04:34:25;;;;;;;8.40;4.13;;;5.80;99.90;;;;;;5058575;28;20144;-76
2023/03/29 04:36:50;;;;;;;9.93;4.53;;;5.40;99.90;;;;;;5111678;28;20387;-76
2023/03/29 04:39:19;;;;;;;11.25;4.82;;;5.40;99.90;;;;;;5112103;28;20049;-75
2023/03/29 04:41:46;;;;;;;12.75;5.05;;;5.40;99.90;;;;;;5091854;28;20048;-76
2023/03/29 04:44:13;;;;;;;15.07;4.63;;;5.40;99.90;;;;;;5073488;28;20084;-75
2023/03/29 04:46:39;;;;;;;7.32;4.50;;;5.40;99.90;;;;;;5091284;28;20093;-75
2023/03/29 04:49:05;;;;;;;6.90;4.50;;;5.40;99.90;;;;;;5090959;28;20506;-76
2023/03/29 04:51:32;;;;;;;11.27;5.05;;;5.40;99.90;;;;;;5091086;28;20048;-75
2023/03/29 04:53:58;;;;;;;16.05;4.85;;;5.90;99.90;;;;;;5092431;28;20763;-75
2023/03/29 04:56:23;;;;;;;8.73;4.40;;;5.40;99.90;;;;;;5091241;28;20093;-76
2023/03/29 04:58:49;;;;;;;8.57;4.70;;;5.40;99.90;;;;;;5091138;28;20471;-76
2023/03/29 05:01:16;;;;;;;8.50;4.80;;;5.40;99.90;;;;;;5091071;28;20040;-76
2023/03/29 05:03:42;;;;;;;10.23;4.57;;;5.60;99.90;;;;;;5092035;28;20048;-73
2023/03/29 05:06:10;;;;;;;8.32;4.60;;;5.40;99.90;;;;;;5090848;28;20446;-75
2023/03/29 05:08:38;;;;;;;9.07;5.00;;;5.50;99.90;;;;;;5091077;28;20384;-74
2023/03/29 05:11:09;;;;;;;7.65;4.65;;;5.40;99.90;;;;;;5092374;28;20047;-76
2023/03/29 05:13:36;;;;;;;10.75;5.60;;;5.50;99.90;;;;;;5108071;28;20038;-74
2023/03/29 05:16:03;;;;;;;11.52;5.25;;;6.20;99.90;;;;;;5091719;28;20042;-74
2023/03/29 05:18:29;;;;;;;8.38;5.30;;;5.50;99.90;;;;;;5090710;28;20067;-75
2023/03/29 05:20:56;;;;;;;8.88;5.05;;;5.50;99.90;;;;;;5090625;28;20048;-75
2023/03/29 05:23:23;;;;;;;12.30;5.50;;;5.50;99.90;;;;;;5100758;28;20044;-77
2023/03/29 05:25:52;;;;;;;9.80;5.40;;;5.50;99.90;;;;;;5109064;28;20090;-75
2023/03/29 05:28:18;;;;;;;10.45;5.38;;;5.50;99.90;;;;;;5099299;28;20737;-77
2023/03/29 05:30:44;;;;;;;9.57;4.75;;;5.50;99.90;;;;;;5090293;28;20100;-76
2023/03/29 05:33:10;;;;;;;12.00;5.05;;;5.50;99.90;;;;;;5090513;28;20410;-76
2023/03/29 05:35:36;;;;;;;13.65;5.53;;;5.50;99.90;;;;;;5091345;28;20073;-77
2023/03/29 05:38:03;;;;;;;12.77;5.05;;;5.50;99.90;;;;;;5090563;28;20186;-76
2023/03/29 05:40:30;;;;;;;9.82;5.35;;;5.50;99.90;;;;;;5090403;28;20051;-75
2023/03/29 05:42:57;;;;;;;11.32;5.90;;;6.20;99.90;;;;;;5090334;28;20079;-74
2023/03/29 05:45:23;;;;;;;12.20;5.82;;;5.90;99.90;;;;;;5089846;28;20483;-76
2023/03/29 05:47:49;;;;;;;11.68;5.78;;;5.50;99.90;;;;;;5091835;28;20510;-74
2023/03/29 05:50:15;;;;;;;11.23;5.78;;;5.60;99.90;;;;;;5090052;28;20185;-76
2023/03/29 05:52:41;;;;;;;9.73;5.90;;;5.60;99.90;;;;;;5090268;28;20119;-75
2023/03/29 05:55:08;;;;;;;9.82;5.35;;;5.60;99.90;;;;;;5098252;28;20046;-76
2023/03/29 05:57:37;;;;;;;10.50;5.90;;;5.60;99.90;;;;;;5108548;28;20040;-76
2023/03/29 06:00:24;;;;;;;10.18;6.55;;;5.50;99.90;;;;;;5110225;28;20035;-75
2023/03/29 06:02:55;;;;;;;10.32;5.80;;;5.50;99.90;;;;;;5110217;28;20398;-76
2023/03/29 06:05:21;;;;;;;14.63;6.28;;;5.90;99.90;;;;;;5110578;28;20050;-74
2023/03/29 06:07:49;;;;;;;12.15;6.57;;;5.50;99.90;;;;;;5108698;28;20032;-77
2023/03/29 06:10:15;;;;;;;11.43;6.82;;;5.60;99.90;;;;;;5101963;28;20512;-75
2023/03/29 06:12:40;;;;;;;14.10;6.32;;;5.60;99.90;;;;;;5089820;28;20052;-75
2023/03/29 06:15:07;;;;;;;16.48;6.60;;;5.60;99.90;;;;;;5104441;28;20055;-75
2023/03/29 06:17:33;;;;;;;12.20;6.55;;;5.60;99.90;;;;;;5109586;28;20048;-78
2023/03/29 06:19:59;;;;;;;10.82;6.53;;;5.60;99.90;;;;;;5108561;28;20132;-77
2023/03/29 06:22:26;;;;;;;19.75;7.10;;;5.60;99.90;;;;;;5091756;28;20105;-79
2023/03/29 06:24:52;;;;;;;11.38;7.53;;;5.60;99.90;;;;;;5108437;28;20043;-76
2023/03/29 06:27:18;;;;;;;10.55;6.88;;;5.70;99.90;;;;;;5109575;28;20064;-76
2023/03/29 06:29:44;;;;;;;13.88;6.53;;;5.70;99.90;;;;;;5107982;28;20050;-75
2023/03/29 06:32:10;;;;;;;14.50;6.85;;;5.70;99.90;;;;;;5091571;28;20063;-73
2023/03/29 06:34:36;;;;;;;13.10;7.38;;;5.70;99.90;;;;;;5110367;28;20089;-76
2023/03/29 06:37:02;;;;;;;12.05;7.07;;;5.70;99.90;;;;;;5114330;28;20113;-76
2023/03/29 06:39:28;;;;;;;15.20;7.25;;;5.70;99.90;;;;;;5099717;28;20048;-74
2023/03/29 06:41:54;;;;;;;15.30;7.68;;;5.70;99.90;;;;;;5093633;28;20404;-76
2023/03/29 06:44:20;;;;;;;13.88;7.13;;;5.70;99.90;;;;;;5093803;28;20400;-74
2023/03/29 06:46:46;;;;;;;11.68;6.82;;;5.80;99.90;;;;;;5093199;28;20055;-76
2023/03/29 06:49:12;;;;;;;12.43;7.05;;;5.70;99.90;;;;;;5093793;28;20048;-79
2023/03/29 06:51:39;;;;;;;14.30;7.60;;;5.80;99.90;;;;;;5094698;28;20066;-76
2023/03/29 06:54:05;;;;;;;9.75;6.53;;;5.80;99.90;;;;;;5093339;28;20055;-75
2023/03/29 06:56:31;;;;;;;11.52;7.25;;;5.80;99.90;;;;;;5094424;28;20036;-76
2023/03/29 06:58:56;;;;;;;14.75;6.95;;;6.10;99.90;;;;;;5093376;28;20655;-78
2023/03/29 07:01:23;;;;;;;13.35;7.57;;;5.90;99.90;;;;;;5104061;28;20084;-77
2023/03/29 07:03:48;;;;;;;12.85;6.93;;;5.90;99.90;;;;;;5113749;28;20043;-77
2023/03/29 07:06:16;;;;;;;13.05;6.90;;;5.90;99.90;;;;;;5095690;28;20044;-77
2023/03/29 07:08:42;;;;;;;12.63;7.43;;;5.90;99.90;;;;;;5113844;28;20414;-81
2023/03/29 07:11:11;;;;;;;14.60;7.30;;;6.00;99.90;;;;;;5101612;28;20497;-76
2023/03/29 07:13:41;;;;;;;11.30;7.22;;;6.10;99.90;;;;;;5093064;28;20074;-73
2023/03/29 07:16:11;;;;;;;14.68;7.22;;;6.10;99.90;;;;;;5074171;28;20059;-74
2023/03/29 07:18:46;;;;;;;12.95;6.95;;;6.10;99.90;;;;;;5093228;28;20044;-74
2023/03/29 07:21:12;;;;;;;12.52;6.68;;;6.20;99.90;;;;;;5094217;28;20052;-74
2023/03/29 07:23:38;;;;;;;13.93;6.68;;;6.20;99.90;;;;;;5092896;28;20403;-74
2023/03/29 07:26:24;;;;;;;10.13;7.05;;;6.20;99.90;;;;;;5092802;28;20055;-73
2023/03/29 07:29:12;;;;;;;13.65;6.70;;;7.10;99.90;;;;;;5092300;28;20067;-74
2023/03/29 07:39:27;;;;;;;13.07;6.55;;;6.40;99.90;;;;;;5028512;22;20515;-74
2023/03/29 07:49:55;;;;;;;14.93;6.70;;;6.50;99.90;;;;;;5541927;23;20058;-73
2023/03/29 07:52:21;;;;;;;11.77;6.55;;;6.50;99.90;;;;;;5031818;23;20095;-75
2023/03/29 07:54:47;;;;;;;11.55;6.68;;;7.40;99.90;;;;;;5023311;28;20046;-73
2023/03/29 07:57:13;;;;;;;12.27;6.45;;;7.00;99.90;;;;;;5012237;28;20064;-74
2023/03/29 07:59:39;;;;;;;11.77;7.05;;;6.70;99.90;;;;;;5012817;28;20097;-74
2023/03/29 08:02:05;;;;;;;13.55;7.20;;;6.70;99.90;;;;;;5017248;28;20048;-73
2023/03/29 08:04:31;;;;;;;10.50;6.80;;;6.70;99.90;;;;;;5022389;28;20397;-72
2023/03/29 08:06:57;;;;;;;11.23;7.05;;;6.80;99.90;;;;;;5030186;28;20084;-74
2023/03/29 08:09:23;;;;;;;11.48;7.05;;;6.80;99.90;;;;;;5022251;28;20057;-74
2023/03/29 08:11:49;;;;;;;15.88;6.85;;;6.90;99.90;;;;;;5032626;28;20041;-73
2023/03/29 08:14:15;;;;;;;12.23;6.53;;;8.00;99.90;;;;;;5016585;28;20081;-82
2023/03/29 08:16:41;;;;;;;13.80;7.55;;;7.00;99.90;;;;;;5021800;28;20080;-74
2023/03/29 08:19:06;;;;;;;15.18;7.03;;;7.90;99.90;;;;;;5032098;28;20136;-77
2023/03/29 08:21:32;;;;;;;13.50;7.00;;;7.70;99.90;;;;;;5032097;28;20053;-75
2023/03/29 08:23:58;;;;;;;13.05;6.97;;;7.60;99.90;;;;;;5031670;28;20131;-73
2023/03/29 08:26:23;;;;;;;15.18;7.00;;;7.10;99.90;;;;;;5031094;28;20417;-73
2023/03/29 08:28:49;;;;;;;11.85;6.72;;;7.50;99.90;;;;;;5014604;28;20045;-75
2023/03/29 08:31:15;;;;;;;15.13;7.07;;;7.20;99.90;;;;;;5031956;28;20053;-75
2023/03/29 08:33:43;;;;;;;11.43;6.70;;;7.60;99.90;;;;;;5032031;28;20033;-80
2023/03/29 08:36:09;;;;;;;10.68;6.63;;;7.30;99.90;;;;;;5030013;28;20056;-75
2023/03/29 08:38:35;;;;;;;13.35;6.90;;;7.30;99.90;;;;;;5031847;28;20050;-80
2023/03/29 08:41:12;;;;;;;11.25;6.50;;;7.40;99.90;;;;;;5031549;28;20052;-73
2023/03/29 08:43:54;;;;;;;10.48;7.22;;;7.40;99.90;;;;;;5030506;28;20116;-74
2023/03/29 08:46:30;;;;;;;17.98;6.45;;;7.90;99.90;;;;;;5011424;28;20559;-81
2023/03/29 08:49:01;;;;;;;10.48;6.22;;;7.50;99.90;;;;;;5011658;28;20120;-85
2023/03/29 08:51:31;;;;;;;11.43;6.38;;;7.60;99.90;;;;;;5024794;28;20095;-81
2023/03/29 08:54:01;;;;;;;10.95;6.43;;;7.60;99.90;;;;;;5051119;28;20055;-75
2023/03/29 08:56:31;;;;;;;13.63;7.05;;;8.30;99.90;;;;;;5052230;28;20060;-75
2023/03/29 08:58:57;;;;;;;12.35;6.88;;;8.40;99.90;;;;;;5050824;28;20051;-78
2023/03/29 09:01:26;;;;;;;15.80;6.53;;;8.60;99.90;;;;;;5050920;28;20384;-84
2023/03/29 09:04:04;;;;;;;11.57;6.75;;;7.90;99.90;;;;;;5051846;28;20446;-80
2023/03/29 09:06:30;;;;;;;17.10;6.75;;;7.90;99.90;;;;;;5050826;28;20053;-84
2023/03/29 09:08:56;;;;;;;10.90;6.32;;;8.10;99.90;;;;;;5050666;28;20431;-83
2023/03/29 09:11:27;;;;;;;12.60;7.38;;;8.10;99.90;;;;;;5051794;28;20045;-82
2023/03/29 09:14:24;;;;;;;13.13;6.57;;;8.10;99.90;;;;;;5050491;28;20049;-75
2023/03/29 09:16:52;;;;;;;10.45;6.95;;;8.20;99.90;;;;;;5050938;28;20128;-74
2023/03/29 09:19:36;;;;;;;13.35;6.78;;;8.30;99.90;;;;;;5032967;28;20088;-76
2023/03/29 09:22:05;;;;;;;17.92;8.20;;;8.60;99.90;;;;;;5032909;28;20123;-76
2023/03/29 09:24:48;;;;;;;13.43;7.03;;;8.40;99.90;;;;;;5046244;28;20037;-74
2023/03/29 09:27:27;;;;;;;12.57;7.35;;;8.50;99.90;;;;;;5060343;28;20048;-74
2023/03/29 09:30:03;;;;;;;16.92;7.38;;;8.50;99.90;;;;;;5070630;28;20048;-74
2023/03/29 09:32:42;;;;;;;18.55;6.82;;;8.60;99.90;;;;;;5052178;28;20052;-74
2023/03/29 09:35:26;;;;;;;13.68;7.25;;;8.70;99.90;;;;;;5070185;28;20079;-78
2023/03/29 09:37:53;;;;;;;14.45;7.53;;;8.80;99.90;;;;;;5070216;28;20106;-76
2023/03/29 09:40:23;;;;;;;14.55;7.57;;;8.90;99.90;;;;;;5070185;28;20071;-74
2023/03/29 09:42:51;;;;;;;14.07;7.43;;;9.00;99.90;;;;;;5070061;28;20044;-75
2023/03/29 09:45:17;;;;;;;14.07;7.78;;;9.00;99.90;;;;;;5070218;28;20044;-82
2023/03/29 09:48:13;;;;;;;14.00;7.60;;;9.60;99.90;;;;;;5069800;28;20048;-76
2023/03/29 09:50:50;;;;;;;16.73;8.43;;;9.20;99.90;;;;;;5064548;28;20492;-75
2023/03/29 09:53:18;;;;;;;13.55;7.43;;;9.50;99.90;;;;;;5069884;28;20055;-76
2023/03/29 09:55:49;;;;;;;13.82;7.57;;;9.70;99.90;;;;;;5042030;28;20088;-77
2023/03/29 09:58:23;;;;;;;20.40;7.45;;;9.50;99.90;;;;;;5049856;28;20055;-75
2023/03/29 10:00:49;;;;;;;13.98;7.85;;;9.40;99.90;;;;;;5050891;28;20083;-79
2023/03/29 10:03:22;;;;;;;16.27;7.85;;;9.50;99.90;;;;;;5052070;28;20052;-76
2023/03/29 10:05:52;;;;;;;15.00;8.80;;;9.50;99.90;;;;;;5049434;28;20040;-81
2023/03/29 10:08:26;;;;;;;17.67;7.97;;;9.60;99.90;;;;;;5049690;28;20053;-78
2023/03/29 10:10:52;;;;;;;18.45;9.32;;;9.60;99.90;;;;;;5049218;28;20045;-77
2023/03/29 10:13:29;;;;;;;14.25;8.40;;;9.80;99.90;;;;;;5064374;28;20127;-74
2023/03/29 10:16:06;;;;;;;17.80;8.95;;;9.70;99.90;;;;;;5069862;28;20047;-76
2023/03/29 10:18:39;;;;;;;16.30;9.25;;;9.70;99.90;;;;;;5069644;28;20076;-75
2023/03/29 10:21:06;;;;;;;20.05;8.90;;;9.70;99.90;;;;;;5069107;28;20056;-77
2023/03/29 10:23:35;;;;;;;21.00;9.98;;;9.80;99.90;;;;;;5062197;28;20037;-74
2023/03/29 10:26:08;;;;;;;14.75;8.63;;;9.90;99.90;;;;;;5049498;28;20475;-74
2023/03/29 10:28:36;;;;;;;19.10;9.38;;;9.90;99.90;;;;;;5049356;28;20040;-75
2023/03/29 10:31:04;;;;;;;19.23;10.20;;;10.20;99.90;;;;;;5049533;28;20052;-74
2023/03/29 10:33:33;;;;;;;20.15;10.30;;;10.00;99.90;;;;;;5050438;28;20077;-74
2023/03/29 10:36:02;;;;;;;16.13;10.35;;;10.00;99.90;;;;;;5049233;28;20171;-75
2023/03/29 10:38:29;;;;;;;18.38;9.68;;;10.40;99.90;;;;;;5049544;28;20051;-74
2023/03/29 10:41:07;;;;;;;25.58;11.80;;;10.20;99.90;;;;;;5031842;28;20041;-75
2023/03/29 10:43:51;;;;;;;19.83;11.13;;;10.30;99.90;;;;;;5049562;28;20049;-72
2023/03/29 10:46:20;;;;;;;22.88;11.75;;;10.40;99.90;;;;;;5049304;28;20041;-74
2023/03/29 10:48:54;;;;;;;21.10;12.27;;;11.00;99.90;;;;;;5049463;28;20103;-74
2023/03/29 10:51:22;;;;;;;23.60;12.23;;;10.70;99.90;;;;;;5048857;28;20097;-75
2023/03/29 10:53:48;;;;;;;18.98;12.35;;;10.90;99.90;;;;;;5049098;28;20504;-74
2023/03/29 10:56:38;;;;;;;28.83;12.90;;;11.00;99.90;;;;;;5050236;28;20139;-75
2023/03/29 10:59:04;;;;;;;22.23;12.05;;;11.10;99.90;;;;;;5039281;28;20057;-75
2023/03/29 11:01:57;;;;;;;22.20;11.80;;;11.20;99.90;;;;;;5049281;28;20057;-74
2023/03/29 11:04:25;;;;;;;17.40;12.10;;;11.30;99.90;;;;;;5049286;28;20495;-76
2023/03/29 11:07:25;;;;;;;23.58;11.77;;;11.40;99.90;;;;;;5050105;28;20055;-74
2023/03/29 11:10:03;;;;;;;19.42;12.18;;;11.50;99.90;;;;;;5049280;28;20044;-77
2023/03/29 11:12:50;;;;;;;18.25;11.80;;;11.50;99.90;;;;;;5019586;28;20555;-82
2023/03/29 11:15:29;;;;;;;22.13;12.27;;;11.60;99.90;;;;;;5039823;28;20045;-77
2023/03/29 11:18:02;;;;;;;20.02;11.95;;;11.70;99.90;;;;;;5048958;28;20059;-81
2023/03/29 11:20:32;;;;;;;17.35;11.85;;;11.80;99.90;;;;;;5049066;28;20110;-76
2023/03/29 11:23:23;;;;;;;19.50;11.85;;;11.80;99.90;;;;;;5050993;28;20095;-80
2023/03/29 11:25:58;;;;;;;18.05;11.75;;;11.80;99.90;;;;;;5052869;28;20125;-80
2023/03/29 11:28:41;;;;;;;18.30;11.77;;;11.70;99.90;;;;;;5052589;28;20049;-76
2023/03/29 11:31:27;;;;;;;20.02;11.73;;;11.90;99.90;;;;;;5027280;28;20087;-80
2023/03/29 11:34:31;;;;;;;19.33;12.40;;;11.70;99.90;;;;;;5052777;28;20059;-79
2023/03/29 11:37:20;;;;;;;20.67;12.35;;;11.70;99.90;;;;;;5056796;28;20549;-78
2023/03/29 11:40:04;;;;;;;19.15;11.30;;;11.70;99.90;;;;;;5072175;28;20059;-76
2023/03/29 11:42:34;;;;;;;18.30;11.33;;;11.70;99.90;;;;;;5070371;28;20136;-74
2023/03/29 11:45:03;;;;;;;18.40;10.50;;;11.70;99.90;;;;;;5063103;28;20127;-74
2023/03/29 11:47:32;;;;;;;17.83;11.10;;;11.80;99.90;;;;;;5052519;28;20051;-74
2023/03/29 11:50:12;;;;;;;19.70;11.57;;;11.70;99.90;;;;;;5052359;28;20044;-77
2023/03/29 11:53:00;;;;;;;19.88;11.30;;;11.90;99.90;;;;;;5051786;28;20068;-75
2023/03/29 11:55:35;;;;;;;16.73;11.15;;;11.90;99.90;;;;;;5052291;28;20099;-75
2023/03/29 11:58:19;;;;;;;19.35;10.95;;;12.00;99.90;;;;;;5053181;28;20049;-74
2023/03/29 12:00:47;;;;;;;16.17;10.65;;;12.00;99.90;;;;;;5051849;28;20516;-75
2023/03/29 12:03:22;;;;;;;17.67;10.70;;;12.00;99.90;;;;;;5033721;28;20045;-74
2023/03/29 12:05:53;;;;;;;19.00;10.05;;;12.20;99.90;;;;;;5051976;28;20049;-75
2023/03/29 12:08:30;;;;;;;14.73;10.52;;;12.30;99.90;;;;;;5034566;28;20048;-74
2023/03/29 12:11:06;;;;;;;15.43;10.15;;;12.40;99.90;;;;;;5055728;28;20373;-74
2023/03/29 12:13:57;;;;;;;16.67;9.73;;;12.50;99.90;;;;;;5071989;28;20051;-74
2023/03/29 12:16:28;;;;;;;14.20;9.63;;;12.70;99.90;;;;;;5059669;28;20116;-74
2023/03/29 12:18:56;;;;;;;13.70;9.40;;;12.80;99.90;;;;;;5051582;28;20490;-76
2023/03/29 12:21:25;;;;;;;14.63;9.88;;;12.80;99.90;;;;;;5051612;28;20091;-74
2023/03/29 12:23:51;;;;;;;15.52;9.50;;;12.90;99.90;;;;;;5051350;28;20059;-75
2023/03/29 12:26:23;;;;;;;15.95;9.77;;;13.00;99.90;;;;;;5052529;28;20134;-75
2023/03/29 12:29:19;;;;;;;13.07;9.25;;;13.10;99.90;;;;;;5051602;28;20051;-75
2023/03/29 12:31:57;;;;;;;14.95;10.07;;;13.10;99.90;;;;;;5051601;28;20049;-74
2023/03/29 12:34:44;;;;;;;13.80;9.88;;;13.10;99.90;;;;;;5051196;28;20128;-73
2023/03/29 12:37:41;;;;;;;14.88;9.27;;;13.10;99.90;;;;;;5052403;28;20044;-74
2023/03/29 12:40:21;;;;;;;15.65;9.50;;;13.10;99.90;;;;;;5051320;28;20045;-75
2023/03/29 12:42:51;;;;;;;14.88;9.02;;;13.20;99.90;;;;;;5051273;28;20052;-74
2023/03/29 12:45:36;;;;;;;15.18;9.15;;;13.20;99.90;;;;;;5051274;28;20047;-74
2023/03/29 12:48:02;;;;;;;13.93;8.90;;;13.20;99.90;;;;;;5053102;28;20051;-75
2023/03/29 12:50:45;;;;;;;15.60;9.07;;;13.20;99.90;;;;;;5070893;28;20115;-74
2023/03/29 12:53:25;;;;;;;16.13;9.80;;;13.10;99.90;;;;;;5053177;28;20072;-77
2023/03/29 12:56:07;;;;;;;13.98;9.25;;;13.10;99.90;;;;;;5033020;28;20480;-74
2023/03/29 12:58:39;;;;;;;15.25;9.10;;;13.10;99.90;;;;;;5050783;28;20512;-74
2023/03/29 13:01:31;;;;;;;16.45;9.13;;;13.10;99.90;;;;;;5050733;28;20132;-75
2023/03/29 13:04:13;;;;;;;13.85;9.25;;;13.00;99.90;;;;;;5032933;28;20064;-74
2023/03/29 13:06:47;;;;;;;16.25;9.68;;;12.90;99.90;;;;;;5050870;28;20049;-73
2023/03/29 13:09:28;;;;;;;13.57;9.27;;;12.90;99.90;;;;;;5050456;28;20088;-73
2023/03/29 13:12:06;;;;;;;15.73;9.57;;;12.90;99.90;;;;;;5050887;28;20068;-73
2023/03/29 13:14:36;;;;;;;16.27;10.20;;;12.90;99.90;;;;;;5032892;28;20060;-73
2023/03/29 13:17:06;;;;;;;15.98;9.93;;;12.90;99.90;;;;;;5050949;28;20045;-74
2023/03/29 13:19:50;;;;;;;17.77;9.90;;;12.90;99.90;;;;;;5050733;28;20048;-75
2023/03/29 13:22:46;;;;;;;14.88;9.57;;;12.90;99.90;;;;;;5050680;28;20043;-73
2023/03/29 13:25:37;;;;;;;15.85;9.82;;;12.90;99.90;;;;;;5050083;28;20106;-74